createdAt,value
2019-05-22T00:02:41.452Z,3.30
2019-05-22T00:05:27.359Z,3.80
2019-05-22T00:07:56.818Z,3.80
2019-05-22T00:10:29.178Z,3.63
2019-05-22T00:12:59.908Z,3.90
2019-05-22T00:15:30.295Z,4.13
2019-05-22T00:18:02.389Z,3.67
2019-05-22T00:20:33.809Z,3.20
2019-05-22T00:23:07.456Z,3.87
2019-05-22T00:25:37.832Z,4.03
2019-05-22T00:28:08.343Z,4.50
2019-05-22T00:30:39.534Z,4.13
2019-05-22T00:33:09.731Z,4.67
2019-05-22T00:35:39.833Z,4.63
2019-05-22T00:38:09.805Z,5.30
2019-05-22T00:40:47.645Z,5.23
2019-05-22T00:43:18.546Z,5.53
2019-05-22T00:45:51.010Z,5.80
2019-05-22T00:48:23.831Z,6.20
2019-05-22T00:51:16.555Z,5.77
2019-05-22T00:54:04.915Z,6.67
2019-05-22T00:56:54.009Z,7.30
2019-05-22T00:59:26.840Z,7.70
2019-05-22T01:01:59.726Z,8.57
2019-05-22T01:04:35.220Z,9.27
2019-05-22T01:07:12.306Z,10.27
2019-05-22T01:09:44.456Z,10.63
2019-05-22T01:12:21.818Z,11.20
2019-05-22T01:14:53.288Z,11.37
2019-05-22T01:17:24.185Z,11.90
2019-05-22T01:19:56.148Z,12.13
2019-05-22T01:22:28.776Z,11.90
2019-05-22T01:25:00.171Z,11.67
2019-05-22T01:27:30.144Z,12.43
2019-05-22T01:30:00.622Z,14.07
2019-05-22T01:32:45.266Z,13.90
2019-05-22T01:35:16.077Z,14.37
2019-05-22T01:37:45.631Z,13.83
2019-05-22T01:40:26.548Z,14.30
2019-05-22T01:42:58.916Z,13.47
2019-05-22T01:45:29.645Z,11.80
2019-05-22T01:48:08.371Z,11.73
2019-05-22T01:50:48.757Z,9.23
2019-05-22T01:53:21.881Z,9.87
2019-05-22T01:55:58.178Z,7.83
2019-05-22T01:58:30.428Z,8.27
2019-05-22T02:01:02.776Z,6.83
2019-05-22T02:03:34.341Z,7.50
2019-05-22T02:06:07.171Z,7.13
2019-05-22T02:08:41.576Z,7.23
2019-05-22T02:11:14.549Z,7.53
2019-05-22T02:13:50.408Z,7.87
2019-05-22T02:16:20.595Z,7.67
2019-05-22T02:18:50.815Z,6.90
2019-05-22T02:21:21.903Z,7.90
2019-05-22T02:23:52.654Z,6.73
2019-05-22T02:26:22.291Z,7.23
2019-05-22T02:28:54.808Z,6.80
2019-05-22T02:31:28.775Z,6.70
2019-05-22T02:34:03.863Z,6.13
2019-05-22T02:36:36.547Z,6.30
2019-05-22T02:39:13.415Z,6.40
2019-05-22T02:41:50.344Z,6.70
2019-05-22T02:44:21.026Z,6.07
2019-05-22T02:46:50.862Z,6.43
2019-05-22T02:49:21.166Z,6.20
2019-05-22T02:51:53.195Z,6.20
2019-05-22T02:54:23.408Z,6.90
2019-05-22T02:56:54.141Z,7.30
2019-05-22T02:59:24.609Z,7.23
2019-05-22T03:01:54.307Z,6.87
2019-05-22T03:04:26.963Z,7.67
2019-05-22T03:06:57.128Z,8.33
2019-05-22T03:09:29.546Z,7.93
2019-05-22T03:12:16.247Z,8.20
2019-05-22T03:14:46.377Z,7.63
2019-05-22T03:17:33.646Z,8.00
2019-05-22T03:20:11.760Z,7.77
2019-05-22T03:22:57.128Z,7.53
2019-05-22T03:25:28.021Z,7.20
2019-05-22T03:27:57.809Z,7.70
2019-05-22T03:30:31.252Z,7.73
2019-05-22T03:33:02.543Z,7.03
2019-05-22T03:35:36.821Z,7.17
2019-05-22T03:38:06.580Z,7.40
2019-05-22T03:40:38.104Z,7.47
2019-05-22T03:43:21.031Z,7.27
2019-05-22T03:45:50.843Z,6.80
2019-05-22T03:48:22.472Z,7.97
2019-05-22T03:50:55.311Z,7.17
2019-05-22T03:53:24.747Z,7.83
2019-05-22T03:55:54.800Z,7.13
2019-05-22T03:58:24.711Z,7.43
2019-05-22T04:00:55.852Z,6.90
2019-05-22T04:03:26.307Z,7.20
2019-05-22T04:05:56.094Z,6.90
2019-05-22T04:08:27.616Z,7.13
2019-05-22T04:11:01.972Z,6.80
2019-05-22T04:13:32.779Z,7.00
2019-05-22T04:16:04.334Z,6.67
2019-05-22T04:18:35.415Z,6.97
2019-05-22T04:21:05.158Z,6.50
2019-05-22T04:23:35.543Z,6.90
2019-05-22T04:26:09.020Z,6.03
2019-05-22T04:28:51.117Z,6.43
2019-05-22T04:31:31.901Z,6.87
2019-05-22T04:34:01.336Z,7.37
2019-05-22T04:36:30.823Z,6.80
2019-05-22T04:39:02.264Z,7.10
2019-05-22T04:41:32.536Z,6.93
2019-05-22T04:44:02.947Z,6.73
2019-05-22T04:46:32.590Z,7.20
2019-05-22T04:49:03.205Z,6.70
2019-05-22T04:51:33.909Z,6.83
2019-05-22T04:54:03.315Z,6.57
2019-05-22T04:56:32.795Z,6.70
2019-05-22T04:59:02.863Z,7.70
2019-05-22T05:01:32.633Z,8.03
2019-05-22T05:04:02.903Z,7.53
2019-05-22T05:06:35.745Z,7.40
2019-05-22T05:09:10.509Z,8.17
2019-05-22T05:11:40.505Z,7.97
2019-05-22T05:14:09.950Z,7.67
2019-05-22T05:16:39.501Z,7.93
2019-05-22T05:19:08.978Z,8.20
2019-05-22T05:21:39.681Z,8.10
2019-05-22T05:24:09.532Z,8.73
2019-05-22T05:26:40.860Z,8.80
2019-05-22T05:29:25.784Z,9.47
2019-05-22T05:31:55.445Z,9.67
2019-05-22T05:34:52.060Z,10.60
2019-05-22T05:37:23.906Z,10.47
2019-05-22T05:40:41.342Z,11.57
2019-05-22T05:43:22.374Z,12.10
2019-05-22T05:45:53.089Z,12.20
2019-05-22T05:48:24.059Z,12.20
2019-05-22T05:51:29.089Z,12.43
2019-05-22T05:54:12.788Z,11.17
2019-05-22T05:56:43.334Z,10.77
2019-05-22T05:59:14.047Z,10.80
2019-05-22T06:01:47.339Z,10.97
2019-05-22T06:04:34.894Z,10.80
2019-05-22T06:07:28.403Z,10.73
2019-05-22T06:10:34.567Z,10.73
2019-05-22T06:13:05.307Z,10.87
2019-05-22T06:16:28.893Z,10.93
2019-05-22T06:18:58.898Z,10.60
2019-05-22T06:21:29.339Z,10.40
2019-05-22T06:24:30.032Z,10.47
2019-05-22T06:27:25.073Z,9.80
2019-05-22T06:30:03.880Z,10.83
2019-05-22T06:33:08.570Z,10.13
2019-05-22T06:35:38.671Z,10.33
2019-05-22T06:38:20.536Z,10.03
2019-05-22T06:40:50.146Z,10.10
2019-05-22T06:43:59.909Z,9.17
2019-05-22T06:46:46.566Z,8.97
2019-05-22T06:49:38.475Z,9.37
2019-05-22T06:52:08.975Z,9.30
2019-05-22T06:54:40.475Z,9.30
2019-05-22T06:57:15.215Z,9.50
2019-05-22T06:59:46.702Z,9.67
2019-05-22T07:02:19.273Z,9.10
2019-05-22T07:04:50.039Z,9.00
2019-05-22T07:07:20.059Z,8.50
2019-05-22T07:09:50.663Z,8.57
2019-05-22T07:12:23.108Z,8.73
2019-05-22T07:18:12.731Z,7.70
2019-05-22T07:20:44.824Z,7.47
2019-05-22T07:23:16.846Z,7.23
2019-05-22T07:25:47.507Z,7.07
2019-05-22T07:28:18.046Z,6.70
2019-05-22T07:30:48.818Z,6.83
2019-05-22T07:33:19.759Z,7.13
2019-05-22T07:36:08.555Z,7.87
2019-05-22T07:38:21.644Z,7.57
2019-05-22T07:40:51.941Z,7.23
2019-05-22T07:43:23.194Z,6.77
2019-05-22T07:45:55.482Z,6.90
2019-05-22T07:48:26.936Z,6.60
2019-05-22T07:50:57.749Z,7.33
2019-05-22T07:53:27.930Z,6.33
2019-05-22T07:55:58.439Z,6.50
2019-05-22T07:58:30.211Z,6.53
2019-05-22T08:01:02.129Z,6.27
2019-05-22T08:03:32.582Z,5.97
2019-05-22T08:06:05.461Z,6.03
2019-05-22T08:08:37.060Z,6.53
2019-05-22T08:11:07.536Z,5.77
2019-05-22T08:13:37.847Z,6.30
2019-05-22T08:16:08.455Z,5.93
2019-05-22T08:18:38.799Z,6.00
2019-05-22T08:21:08.874Z,6.07
2019-05-22T08:23:38.381Z,6.07
2019-05-22T08:26:09.639Z,6.43
2019-05-22T08:28:39.577Z,5.87
2019-05-22T08:31:11.077Z,5.70
2019-05-22T08:33:40.894Z,5.73
2019-05-22T08:36:10.632Z,5.37
2019-05-22T08:38:40.238Z,5.20
2019-05-22T08:41:10.882Z,5.50
2019-05-22T08:44:11.542Z,5.30
2019-05-22T08:46:13.508Z,5.53
2019-05-22T08:48:47.744Z,5.67
2019-05-22T08:51:14.344Z,5.70
2019-05-22T08:53:47.913Z,5.87
2019-05-22T08:56:15.324Z,5.23
2019-05-22T08:58:45.030Z,4.83
2019-05-22T09:01:14.357Z,4.97
2019-05-22T09:03:43.859Z,5.13
2019-05-22T09:06:13.281Z,5.00
2019-05-22T09:08:45.709Z,5.10
2019-05-22T09:11:14.667Z,5.83
2019-05-22T09:13:43.976Z,5.23
2019-05-22T09:16:14.505Z,5.33
2019-05-22T09:18:43.643Z,5.03
2019-05-22T09:21:14.065Z,5.70
2019-05-22T09:23:44.399Z,5.37
2019-05-22T09:26:14.491Z,5.47
2019-05-22T09:28:43.494Z,5.13
2019-05-22T09:31:12.523Z,5.00
2019-05-22T09:33:42.079Z,5.17
2019-05-22T09:36:11.166Z,4.93
2019-05-22T09:38:42.981Z,4.70
2019-05-22T09:41:12.404Z,5.00
2019-05-22T09:43:41.477Z,4.47
2019-05-22T09:46:11.379Z,4.40
2019-05-22T09:48:41.032Z,4.90
2019-05-22T09:51:10.504Z,4.80
2019-05-22T09:53:41.037Z,4.93
2019-05-22T09:56:10.664Z,4.80
2019-05-22T09:58:40.112Z,4.50
2019-05-22T10:01:11.858Z,5.27
2019-05-22T10:03:41.688Z,5.50
2019-05-22T10:06:11.601Z,5.47
2019-05-22T10:08:41.145Z,5.60
2019-05-22T10:11:10.552Z,5.50
2019-05-22T10:13:40.370Z,6.07
2019-05-22T10:16:10.127Z,6.13
2019-05-22T10:18:39.386Z,6.40
2019-05-22T10:21:09.276Z,6.20
2019-05-22T10:23:39.340Z,6.30
2019-05-22T10:26:09.363Z,5.93
2019-05-22T10:28:39.109Z,6.03
2019-05-22T10:31:09.424Z,5.47
2019-05-22T10:33:39.915Z,6.20
2019-05-22T10:36:09.627Z,5.60
2019-05-22T10:38:41.370Z,5.97
2019-05-22T10:41:11.798Z,4.80
2019-05-22T10:43:41.417Z,4.43
2019-05-22T10:46:11.725Z,4.30
2019-05-22T10:48:41.103Z,4.57
2019-05-22T10:51:10.506Z,4.80
2019-05-22T10:53:40.090Z,4.20
2019-05-22T10:56:10.038Z,4.07
2019-05-22T10:58:42.036Z,4.30
2019-05-22T11:01:11.826Z,4.30
2019-05-22T11:03:41.691Z,4.50
2019-05-22T11:06:12.217Z,4.17
2019-05-22T11:08:41.927Z,4.30
2019-05-22T11:11:11.738Z,4.60
2019-05-22T11:13:41.705Z,4.83
2019-05-22T11:16:11.729Z,5.23
2019-05-22T11:18:42.458Z,5.53
2019-05-22T11:21:13.290Z,6.33
2019-05-22T11:23:52.147Z,6.97
2019-05-22T11:26:13.791Z,7.80
2019-05-22T11:28:43.605Z,8.00
2019-05-22T11:31:13.421Z,8.20
2019-05-22T11:33:42.821Z,8.37
2019-05-22T11:36:12.959Z,7.80
2019-05-22T11:38:43.851Z,8.23
2019-05-22T11:41:15.879Z,8.30
2019-05-22T11:43:45.803Z,7.30
2019-05-22T11:46:16.226Z,6.10
2019-05-22T11:48:45.805Z,6.77
2019-05-22T11:51:15.422Z,6.07
2019-05-22T11:53:44.965Z,6.20
2019-05-22T11:56:14.672Z,6.70
2019-05-22T11:58:44.407Z,6.00
2019-05-22T12:01:13.831Z,5.73
2019-05-22T12:03:43.455Z,6.10
2019-05-22T12:06:13.698Z,5.60
2019-05-22T12:08:43.580Z,5.67
2019-05-22T12:11:16.294Z,5.27
2019-05-22T12:13:47.101Z,4.90
2019-05-22T12:16:16.934Z,5.03
2019-05-22T12:18:46.724Z,4.30
2019-05-22T12:21:16.322Z,4.33
2019-05-22T12:23:46.121Z,4.70
2019-05-22T12:26:15.555Z,4.23
2019-05-22T12:28:47.564Z,4.40
2019-05-22T12:31:17.024Z,4.10
2019-05-22T12:33:47.132Z,4.57
2019-05-22T12:36:18.139Z,4.77
2019-05-22T12:38:48.026Z,5.10
2019-05-22T12:41:19.918Z,4.80
2019-05-22T12:43:49.648Z,5.60
2019-05-22T12:46:20.318Z,5.70
2019-05-22T12:48:50.110Z,6.50
2019-05-22T12:51:19.605Z,6.53
2019-05-22T12:53:49.027Z,7.10
2019-05-22T12:56:19.154Z,7.50
2019-05-22T12:58:49.064Z,7.50
2019-05-22T13:01:20.869Z,7.87
2019-05-22T13:03:51.326Z,7.83
2019-05-22T13:06:21.838Z,8.50
2019-05-22T13:08:51.671Z,7.23
2019-05-22T13:11:21.985Z,6.93
2019-05-22T13:13:51.758Z,7.37
2019-05-22T13:16:22.034Z,6.03
2019-05-22T13:18:53.176Z,6.60
2019-05-22T13:21:28.879Z,6.43
2019-05-22T13:24:00.486Z,6.03
2019-05-22T13:26:29.946Z,5.77
2019-05-22T13:29:00.356Z,6.23
2019-05-22T13:31:29.959Z,6.20
2019-05-22T13:34:00.571Z,6.03
2019-05-22T13:36:30.328Z,6.63
2019-05-22T13:39:00.052Z,6.30
2019-05-22T13:41:29.657Z,6.77
2019-05-22T13:44:00.367Z,6.70
2019-05-22T13:46:30.432Z,6.67
2019-05-22T13:49:00.800Z,6.90
2019-05-22T13:51:30.566Z,6.50
2019-05-22T13:54:01.167Z,6.37
2019-05-22T13:56:31.301Z,6.87
2019-05-22T13:59:04.175Z,7.73
2019-05-22T14:01:33.692Z,7.23
2019-05-22T14:04:03.090Z,8.47
2019-05-22T14:06:33.541Z,8.23
2019-05-22T14:09:03.751Z,9.33
2019-05-22T14:11:33.375Z,9.10
2019-05-22T14:14:04.691Z,9.00
2019-05-22T14:16:48.024Z,9.47
2019-05-22T14:19:06.683Z,9.10
2019-05-22T14:21:36.133Z,9.23
2019-05-22T14:24:06.068Z,9.83
2019-05-22T14:26:36.171Z,9.07
2019-05-22T14:29:06.032Z,10.00
2019-05-22T14:31:35.914Z,9.63
2019-05-22T14:34:06.348Z,10.13
2019-05-22T14:36:35.847Z,10.87
2019-05-22T14:39:08.406Z,10.60
2019-05-22T14:41:38.113Z,12.43
2019-05-22T14:44:07.923Z,12.13
2019-05-22T14:46:37.859Z,11.90
2019-05-22T14:49:07.323Z,12.30
2019-05-22T14:51:37.441Z,11.97
2019-05-22T14:54:07.970Z,12.00
2019-05-22T14:56:37.287Z,12.93
2019-05-22T14:59:07.159Z,12.30
2019-05-22T15:01:37.097Z,13.03
2019-05-22T15:04:06.673Z,13.40
2019-05-22T15:06:36.766Z,13.13
2019-05-22T15:09:07.564Z,11.97
2019-05-22T15:11:37.139Z,13.07
2019-05-22T15:14:06.702Z,11.77
2019-05-22T15:16:36.311Z,12.47
2019-05-22T15:19:06.640Z,13.07
2019-05-22T15:21:35.962Z,13.53
2019-05-22T15:24:06.447Z,11.30
2019-05-22T15:26:36.200Z,9.67
2019-05-22T15:29:05.453Z,8.67
2019-05-22T15:31:35.117Z,8.00
2019-05-22T15:34:05.115Z,7.87
2019-05-22T15:36:35.813Z,6.53
2019-05-22T15:39:08.110Z,6.17
2019-05-22T15:41:39.459Z,5.80
2019-05-22T15:44:11.286Z,5.33
2019-05-22T15:46:41.362Z,6.60
2019-05-22T15:49:12.713Z,6.03
2019-05-22T15:51:44.293Z,7.27
2019-05-22T15:54:15.870Z,7.53
2019-05-22T15:56:47.584Z,7.00
2019-05-22T15:59:20.253Z,6.80
2019-05-22T16:01:51.178Z,6.73
2019-05-22T16:04:22.442Z,7.27
2019-05-22T16:06:52.394Z,7.90
2019-05-22T16:09:25.119Z,7.17
2019-05-22T16:11:56.492Z,7.70
2019-05-22T16:14:29.374Z,7.40
2019-05-22T16:17:01.361Z,7.30
2019-05-22T16:19:31.948Z,7.23
2019-05-22T16:22:06.649Z,6.80
2019-05-22T16:24:38.054Z,5.77
2019-05-22T16:27:08.248Z,5.70
2019-05-22T16:29:38.256Z,5.53
2019-05-22T16:32:10.178Z,5.33
2019-05-22T16:34:41.831Z,4.57
2019-05-22T16:37:11.779Z,5.53
2019-05-22T16:39:41.778Z,6.70
2019-05-22T16:42:11.561Z,7.60
2019-05-22T16:44:41.984Z,8.43
2019-05-22T16:47:11.884Z,8.80
2019-05-22T16:49:43.768Z,10.33
2019-05-22T16:52:16.470Z,10.73
2019-05-22T16:54:47.292Z,11.03
2019-05-22T16:57:17.527Z,10.70
2019-05-22T16:59:47.379Z,11.10
2019-05-22T17:02:21.089Z,10.67
2019-05-22T17:04:50.927Z,10.13
2019-05-22T17:07:20.451Z,10.83
2019-05-22T17:09:52.642Z,10.70
2019-05-22T17:12:25.698Z,11.07
2019-05-22T17:14:55.770Z,12.50
2019-05-22T17:17:26.110Z,13.27
2019-05-22T17:19:56.038Z,13.57
2019-05-22T17:22:26.162Z,13.20
2019-05-22T17:24:55.654Z,13.43
2019-05-22T17:27:25.249Z,14.27
2019-05-22T17:29:55.610Z,12.53
2019-05-22T17:32:26.824Z,12.77
2019-05-22T17:34:56.435Z,13.33
2019-05-22T17:37:26.574Z,14.47
2019-05-22T17:39:56.270Z,14.63
2019-05-22T17:42:27.424Z,14.63
2019-05-22T17:44:57.827Z,14.40
2019-05-22T17:47:29.347Z,15.80
2019-05-22T17:50:01.905Z,15.83
2019-05-22T17:52:32.753Z,16.43
2019-05-22T17:55:04.851Z,16.07
2019-05-22T17:57:34.810Z,15.90
2019-05-22T18:00:06.950Z,15.83
2019-05-22T18:02:37.017Z,16.60
2019-05-22T18:05:07.874Z,16.03
2019-05-22T18:07:38.714Z,15.33
2019-05-22T18:10:12.295Z,14.47
2019-05-22T18:12:41.994Z,14.93
2019-05-22T18:15:14.613Z,14.70
2019-05-22T18:17:45.140Z,14.00
2019-05-22T18:20:15.885Z,14.40
2019-05-22T18:22:45.468Z,13.40
2019-05-22T18:25:16.584Z,14.17
2019-05-22T18:27:46.020Z,12.53
2019-05-22T18:30:15.926Z,12.33
2019-05-22T18:32:45.355Z,10.70
2019-05-22T18:35:15.431Z,9.80
2019-05-22T18:37:45.110Z,9.90
2019-05-22T18:40:15.259Z,8.93
2019-05-22T18:42:44.919Z,8.27
2019-05-22T18:45:14.707Z,8.20
2019-05-22T18:47:44.258Z,8.87
2019-05-22T18:50:15.274Z,8.67
2019-05-22T18:52:47.733Z,8.80
2019-05-22T18:55:17.986Z,9.20
2019-05-22T18:57:47.712Z,10.00
2019-05-22T19:00:21.643Z,9.53
2019-05-22T19:02:51.389Z,9.97
2019-05-22T19:05:24.280Z,10.33
2019-05-22T19:07:53.885Z,9.33
2019-05-22T19:10:24.528Z,9.03
2019-05-22T19:12:54.211Z,8.23
2019-05-22T19:15:24.341Z,7.73
2019-05-22T19:17:54.635Z,7.47
2019-05-22T19:20:24.775Z,8.60
2019-05-22T19:22:59.974Z,8.73
2019-05-22T19:25:25.556Z,9.00
2019-05-22T19:27:54.951Z,9.57
2019-05-22T19:30:26.528Z,9.40
2019-05-22T19:32:56.039Z,9.17
2019-05-22T19:35:25.475Z,9.80
2019-05-22T19:37:55.847Z,10.10
2019-05-22T19:40:25.536Z,9.87
2019-05-22T19:42:55.280Z,10.10
2019-05-22T19:45:24.993Z,8.50
2019-05-22T19:47:57.001Z,8.70
2019-05-22T19:50:26.994Z,9.37
2019-05-22T19:52:57.712Z,8.83
2019-05-22T19:55:30.210Z,8.37
2019-05-22T19:58:00.930Z,8.40
2019-05-22T20:00:31.687Z,8.43
2019-05-22T20:03:02.185Z,7.03
2019-05-22T20:05:34.044Z,5.40
2019-05-22T20:08:04.678Z,5.77
2019-05-22T20:10:34.786Z,5.33
2019-05-22T20:13:05.879Z,6.00
2019-05-22T20:15:36.393Z,6.07
2019-05-22T20:18:06.701Z,5.83
2019-05-22T20:20:36.313Z,4.90
2019-05-22T20:23:06.331Z,4.03
2019-05-22T20:25:36.125Z,3.47
2019-05-22T20:28:06.285Z,2.50
2019-05-22T20:30:36.542Z,2.87
2019-05-22T20:33:07.263Z,2.87
2019-05-22T20:35:36.814Z,2.63
2019-05-22T20:38:07.384Z,2.40
2019-05-22T20:40:37.574Z,2.60
2019-05-22T20:43:08.842Z,2.73
2019-05-22T20:45:41.060Z,2.60
2019-05-22T20:48:19.578Z,2.77
2019-05-22T20:50:49.694Z,2.90
2019-05-22T20:53:19.817Z,2.73
2019-05-22T20:55:50.389Z,2.67
2019-05-22T20:58:20.974Z,2.53
2019-05-22T21:00:52.462Z,2.30
2019-05-22T21:03:22.352Z,2.40
2019-05-22T21:05:54.232Z,2.10
2019-05-22T21:08:26.652Z,2.20
2019-05-22T21:10:58.871Z,2.20
2019-05-22T21:13:28.265Z,2.30
2019-05-22T21:16:01.547Z,2.20
2019-05-22T21:18:51.036Z,2.77
2019-05-22T21:21:22.550Z,2.53
2019-05-22T21:23:52.707Z,2.37
2019-05-22T21:26:22.789Z,2.60
2019-05-22T21:28:52.220Z,2.53
2019-05-22T21:31:23.289Z,2.60
2019-05-22T21:33:52.880Z,2.77
2019-05-22T21:36:24.063Z,2.80
2019-05-22T21:38:55.231Z,3.20
2019-05-22T21:41:25.004Z,3.57
2019-05-22T21:43:55.574Z,3.70
2019-05-22T21:46:25.958Z,4.10
2019-05-22T21:49:00.278Z,4.30
2019-05-22T21:51:30.571Z,5.20
2019-05-22T21:54:00.275Z,5.10
2019-05-22T21:56:30.518Z,4.50
2019-05-22T21:59:00.911Z,4.87
2019-05-22T22:01:37.806Z,5.20
2019-05-22T22:04:18.038Z,4.70
2019-05-22T22:06:47.818Z,5.30
2019-05-22T22:09:18.591Z,5.20
2019-05-22T22:11:48.824Z,4.70
2019-05-22T22:14:18.545Z,4.87
2019-05-22T22:16:48.335Z,5.20
2019-05-22T22:19:20.000Z,4.70
2019-05-22T22:21:50.280Z,4.77
2019-05-22T22:24:20.109Z,3.80
2019-05-22T22:26:49.875Z,3.73
2019-05-22T22:29:20.767Z,4.07
2019-05-22T22:31:54.064Z,4.17
2019-05-22T22:34:36.200Z,3.90
2019-05-22T22:37:07.348Z,3.40
2019-05-22T22:39:37.913Z,3.53
2019-05-22T22:42:09.564Z,3.80
2019-05-22T22:44:40.255Z,3.50
2019-05-22T22:47:14.418Z,3.70
2019-05-22T22:49:44.186Z,3.60
2019-05-22T22:52:16.206Z,3.30
2019-05-22T22:54:46.201Z,3.50
2019-05-22T22:57:15.913Z,2.67
2019-05-22T22:59:45.704Z,2.70
2019-05-22T23:02:17.785Z,2.50
2019-05-22T23:04:48.562Z,2.37
2019-05-22T23:07:19.578Z,2.90
2019-05-22T23:09:49.385Z,2.60
2019-05-22T23:12:19.640Z,1.93
2019-05-22T23:14:53.429Z,2.33
2019-05-22T23:17:22.805Z,1.90
2019-05-22T23:19:51.726Z,1.60
2019-05-22T23:22:27.429Z,1.30
2019-05-22T23:24:59.552Z,1.50
2019-05-22T23:27:31.477Z,1.40
2019-05-22T23:30:01.149Z,1.30
2019-05-22T23:32:31.018Z,1.30
2019-05-22T23:35:02.069Z,1.10
2019-05-22T23:37:31.820Z,1.23
2019-05-22T23:40:01.793Z,1.00
2019-05-22T23:42:35.003Z,1.40
2019-05-22T23:45:07.620Z,1.27
2019-05-22T23:48:00.995Z,1.40
2019-05-22T23:50:33.431Z,1.27
2019-05-22T23:53:04.190Z,1.70
2019-05-22T23:55:34.170Z,1.73
2019-05-22T23:58:05.227Z,1.90
